Terminal Aerodrome Forecast
Issued by NWS

Home | Current Version | Previous Version | Text Only | Print | Product List | Glossary On
Versions: 1 2 3 4 5 6 7 8 9 10 11 12
000
FTUS45 KREV 231120
TAFTVL
TAF
KTVL 231120Z 2312/2412 18004KT P6SM BKN180
     FM231800 03007KT P6SM BKN180
     FM240200 VRB03KT P6SM SCT180=

USA.gov is the U.S. government's official web portal to all federal, state and local government web resources and services.